createdAt,value
2023-03-17T00:01:54.554Z,0.03
2023-03-17T00:04:24.573Z,0.03
2023-03-17T00:06:54.456Z,0.00
2023-03-17T00:09:23.607Z,0.01
2023-03-17T00:11:52.859Z,0.01
2023-03-17T00:14:22.211Z,0.01
2023-03-17T00:16:52.695Z,-0.02
2023-03-17T00:19:26.470Z,-0.02
2023-03-17T00:21:55.496Z,-0.05
2023-03-17T00:24:25.282Z,-0.08
2023-03-17T00:26:53.933Z,-0.09
2023-03-17T00:29:22.801Z,-0.08
2023-03-17T00:31:52.555Z,-0.07
2023-03-17T00:34:24.518Z,-0.07
2023-03-17T00:36:53.790Z,-0.12
2023-03-17T00:39:25.062Z,-0.15
2023-03-17T00:41:56.273Z,-0.14
2023-03-17T00:44:25.053Z,-0.14
2023-03-17T00:46:57.268Z,-0.16
2023-03-17T00:49:25.708Z,-0.19
2023-03-17T00:51:54.844Z,-0.22
2023-03-17T00:54:23.928Z,-0.23
2023-03-17T00:56:52.782Z,-0.24
2023-03-17T00:59:27.238Z,-0.30
2023-03-17T01:01:56.086Z,-0.34
2023-03-17T01:04:25.015Z,-0.36
2023-03-17T01:06:54.198Z,-0.37
2023-03-17T01:09:27.093Z,-0.39
2023-03-17T01:11:56.325Z,-0.44
2023-03-17T01:14:25.209Z,-0.50
2023-03-17T01:16:54.512Z,-0.57
2023-03-17T01:19:23.566Z,-0.60
2023-03-17T01:21:52.334Z,-0.61
2023-03-17T01:24:21.064Z,-0.60
2023-03-17T01:26:50.315Z,-0.60
2023-03-17T01:29:19.180Z,-0.63
2023-03-17T01:31:48.070Z,-0.65
2023-03-17T01:34:17.272Z,-0.66
2023-03-17T01:36:46.772Z,-0.68
2023-03-17T01:39:16.188Z,-0.75
2023-03-17T01:41:45.011Z,-0.76
2023-03-17T01:44:16.911Z,-0.76
2023-03-17T01:46:46.646Z,-0.74
2023-03-17T01:49:20.572Z,-0.70
2023-03-17T01:51:58.064Z,-0.68
2023-03-17T01:54:34.458Z,-0.66
2023-03-17T01:57:08.718Z,-0.64
2023-03-17T01:59:43.523Z,-0.62
2023-03-17T02:02:17.356Z,-0.61
2023-03-17T02:04:46.175Z,-0.59
2023-03-17T02:07:15.156Z,-0.57
2023-03-17T02:09:44.137Z,-0.58
2023-03-17T02:12:14.590Z,-0.60
2023-03-17T02:14:44.090Z,-0.57
2023-03-17T02:17:14.078Z,-0.53
2023-03-17T02:19:44.552Z,-0.51
2023-03-17T02:22:13.621Z,-0.51
2023-03-17T02:24:48.621Z,-0.51
2023-03-17T02:27:20.687Z,-0.55
2023-03-17T02:29:50.315Z,-0.57
2023-03-17T02:32:20.196Z,-0.55
2023-03-17T02:34:50.384Z,-0.53
2023-03-17T02:37:19.974Z,-0.52
2023-03-17T02:39:48.590Z,-0.49
2023-03-17T02:42:17.250Z,-0.47
2023-03-17T02:44:45.860Z,-0.42
2023-03-17T02:47:15.172Z,-0.37
2023-03-17T02:49:44.506Z,-0.34
2023-03-17T02:52:13.188Z,-0.27
2023-03-17T02:54:42.098Z,-0.22
2023-03-17T02:57:11.211Z,-0.17
2023-03-17T02:59:39.936Z,-0.13
2023-03-17T03:02:09.516Z,-0.11
2023-03-17T03:04:38.350Z,-0.08
2023-03-17T03:07:07.359Z,-0.04
2023-03-17T03:09:36.249Z,-0.00
2023-03-17T03:12:09.291Z,0.02
2023-03-17T03:14:38.058Z,0.02
2023-03-17T03:17:06.845Z,-0.01
2023-03-17T03:19:35.621Z,-0.09
2023-03-17T03:22:04.262Z,-0.16
2023-03-17T03:24:32.881Z,-0.19
2023-03-17T03:27:01.636Z,-0.18
2023-03-17T03:29:30.663Z,-0.16
2023-03-17T03:31:59.315Z,-0.17
2023-03-17T03:34:28.488Z,-0.18
2023-03-17T03:36:57.410Z,-0.21
2023-03-17T03:39:26.387Z,-0.23
2023-03-17T03:41:56.733Z,-0.26
2023-03-17T03:44:25.678Z,-0.27
2023-03-17T03:46:54.345Z,-0.31
2023-03-17T03:49:23.911Z,-0.36
2023-03-17T03:51:54.017Z,-0.43
2023-03-17T03:54:22.791Z,-0.48
2023-03-17T03:56:51.794Z,-0.51
2023-03-17T04:40:44.878Z,-0.48
2023-03-17T04:43:13.646Z,-0.53
2023-03-17T04:45:42.359Z,-0.50
2023-03-17T04:48:11.070Z,-0.49
2023-03-17T04:50:39.742Z,-0.49
2023-03-17T04:53:08.910Z,-0.48
2023-03-17T04:55:37.569Z,-0.49
2023-03-17T04:58:06.217Z,-0.51
2023-03-17T05:00:38.191Z,-0.51
2023-03-17T05:03:23.845Z,-0.50
2023-03-17T05:05:54.982Z,-0.48
2023-03-17T05:08:23.536Z,-0.46
2023-03-17T05:10:52.221Z,-0.45
2023-03-17T05:13:21.059Z,-0.40
2023-03-17T05:15:51.146Z,-0.33
2023-03-17T05:18:23.355Z,-0.16
2023-03-17T05:20:51.219Z,0.09
2023-03-17T05:23:21.664Z,0.36
2023-03-17T05:25:50.400Z,0.63
2023-03-17T05:28:20.221Z,0.84
2023-03-17T05:30:50.145Z,1.03
2023-03-17T05:33:19.525Z,1.29
2023-03-17T05:35:48.225Z,1.59
2023-03-17T05:38:17.261Z,1.87
2023-03-17T05:40:49.009Z,2.18
2023-03-17T05:43:18.063Z,2.50
2023-03-17T05:45:47.416Z,2.77
2023-03-17T05:48:16.590Z,3.02
2023-03-17T05:50:45.377Z,3.22
2023-03-17T05:53:14.403Z,3.30
2023-03-17T05:55:43.180Z,3.29
2023-03-17T05:58:12.238Z,3.18
2023-03-17T06:00:41.252Z,3.11
2023-03-17T06:03:10.375Z,3.06
2023-03-17T06:05:39.314Z,3.04
2023-03-17T06:08:08.206Z,3.04
2023-03-17T06:10:37.010Z,3.05
2023-03-17T06:13:05.647Z,3.08
2023-03-17T06:15:36.360Z,3.22
2023-03-17T06:18:05.796Z,3.45
2023-03-17T06:20:34.772Z,3.74
2023-03-17T06:23:06.869Z,4.03
2023-03-17T06:25:35.144Z,4.39
2023-03-17T06:28:04.819Z,4.72
2023-03-17T06:30:35.613Z,5.03
2023-03-17T06:33:06.234Z,5.35
2023-03-17T06:35:35.536Z,5.63
2023-03-17T06:38:04.906Z,5.89
2023-03-17T06:40:33.750Z,6.12
2023-03-17T06:43:02.924Z,6.38
2023-03-17T06:45:32.670Z,6.49
2023-03-17T06:48:03.986Z,6.63
2023-03-17T06:50:32.669Z,6.76
2023-03-17T06:53:01.290Z,6.96
2023-03-17T06:55:31.383Z,7.14
2023-03-17T06:58:01.359Z,7.34
2023-03-17T07:00:30.815Z,7.51
2023-03-17T07:02:59.419Z,7.71
2023-03-17T07:05:28.258Z,7.95
2023-03-17T07:07:58.698Z,8.09
2023-03-17T07:10:27.591Z,8.24
2023-03-17T07:12:58.426Z,8.38
2023-03-17T07:15:27.110Z,8.46
2023-03-17T07:17:56.103Z,8.47
2023-03-17T07:20:24.717Z,8.53
2023-03-17T07:22:53.409Z,8.64
2023-03-17T07:25:22.321Z,8.65
2023-03-17T07:27:51.777Z,8.75
2023-03-17T07:30:21.179Z,8.75
2023-03-17T07:32:49.926Z,8.71
2023-03-17T07:35:18.993Z,8.71
2023-03-17T07:37:47.694Z,8.67
2023-03-17T07:40:18.071Z,8.64
2023-03-17T07:42:47.184Z,8.76
2023-03-17T07:45:17.812Z,8.80
2023-03-17T07:47:47.665Z,8.91
2023-03-17T07:50:16.293Z,8.92
2023-03-17T07:52:44.947Z,9.01
2023-03-17T07:55:13.691Z,9.06
2023-03-17T07:57:42.763Z,9.13
2023-03-17T08:00:14.612Z,9.19
2023-03-17T08:02:43.852Z,9.34
2023-03-17T08:05:13.712Z,9.48
2023-03-17T08:07:42.822Z,9.51
2023-03-17T08:10:13.071Z,9.52
2023-03-17T08:12:41.942Z,9.57
2023-03-17T08:15:12.391Z,9.68
2023-03-17T08:17:41.385Z,9.73
2023-03-17T08:20:12.628Z,9.61
2023-03-17T08:22:41.486Z,9.61
2023-03-17T08:25:10.925Z,9.59
2023-03-17T08:27:40.763Z,9.59
2023-03-17T08:30:12.126Z,9.58
2023-03-17T08:32:41.122Z,9.56
2023-03-17T08:35:14.551Z,9.45
2023-03-17T08:37:43.514Z,9.52
2023-03-17T08:40:16.326Z,9.63
2023-03-17T08:42:45.974Z,9.77
2023-03-17T08:45:16.110Z,9.76
2023-03-17T08:47:45.484Z,9.79
2023-03-17T08:50:20.473Z,9.98
2023-03-17T08:52:49.488Z,10.06
2023-03-17T08:55:19.473Z,10.00
2023-03-17T08:57:48.850Z,9.88
2023-03-17T09:00:20.460Z,9.80
2023-03-17T09:02:48.683Z,9.69
2023-03-17T09:05:18.907Z,9.60
2023-03-17T09:07:49.411Z,9.60
2023-03-17T09:10:22.014Z,9.60
2023-03-17T09:12:52.697Z,9.64
2023-03-17T09:15:22.753Z,9.66
2023-03-17T09:17:51.408Z,9.62
2023-03-17T09:20:20.333Z,9.66
2023-03-17T09:22:49.101Z,9.82
2023-03-17T09:25:18.430Z,9.88
2023-03-17T09:27:47.190Z,9.94
2023-03-17T09:30:17.292Z,10.04
2023-03-17T09:32:46.421Z,10.06
2023-03-17T09:35:15.068Z,10.17
2023-03-17T09:37:44.072Z,10.28
2023-03-17T09:40:17.876Z,10.29
2023-03-17T09:42:59.138Z,10.22
2023-03-17T09:45:33.879Z,10.23
2023-03-17T09:48:17.008Z,10.19
2023-03-17T09:50:53.047Z,10.18
2023-03-17T09:53:27.304Z,10.18
2023-03-17T09:55:58.286Z,10.11
2023-03-17T09:58:32.012Z,10.06
2023-03-17T10:01:02.788Z,10.10
2023-03-17T10:03:32.592Z,10.08
2023-03-17T10:06:17.626Z,9.97
2023-03-17T10:08:54.782Z,9.86
2023-03-17T10:11:33.512Z,9.85
2023-03-17T10:14:11.642Z,9.90
2023-03-17T10:16:47.807Z,10.03
2023-03-17T10:19:26.483Z,10.14
2023-03-17T10:22:00.259Z,10.15
2023-03-17T10:24:31.858Z,10.20
2023-03-17T10:27:06.162Z,10.15
2023-03-17T10:29:35.487Z,10.09
2023-03-17T10:32:05.366Z,10.00
2023-03-17T10:34:38.044Z,9.87
2023-03-17T10:37:08.886Z,9.75
2023-03-17T10:39:46.236Z,9.66
2023-03-17T10:42:23.327Z,9.61
2023-03-17T10:44:55.575Z,9.64
2023-03-17T10:47:29.664Z,9.70
2023-03-17T10:50:02.042Z,9.73
2023-03-17T10:52:34.374Z,9.77
2023-03-17T10:55:05.979Z,9.77
2023-03-17T10:57:38.182Z,9.78
2023-03-17T11:00:16.272Z,9.83
2023-03-17T11:02:48.182Z,9.85
2023-03-17T11:05:22.354Z,9.86
2023-03-17T11:07:57.032Z,9.89
2023-03-17T11:10:28.648Z,9.93
2023-03-17T11:12:59.733Z,10.02
2023-03-17T11:15:33.581Z,10.06
2023-03-17T11:18:05.806Z,10.05
2023-03-17T11:20:49.745Z,10.05
2023-03-17T11:23:45.538Z,10.09
2023-03-17T11:26:27.407Z,10.10
2023-03-17T11:29:12.793Z,10.20
2023-03-17T11:31:48.007Z,10.25
2023-03-17T11:34:26.677Z,10.20
2023-03-17T11:37:03.350Z,10.17
2023-03-17T11:39:42.679Z,10.16
2023-03-17T11:42:17.048Z,10.23
2023-03-17T11:45:08.316Z,10.23
2023-03-17T11:47:49.630Z,10.27
2023-03-17T11:50:26.212Z,10.32
2023-03-17T11:53:10.157Z,10.30
2023-03-17T11:55:45.769Z,10.32
2023-03-17T11:58:22.655Z,10.32
2023-03-17T12:00:56.651Z,10.37
2023-03-17T12:03:32.782Z,10.39
2023-03-17T12:06:05.908Z,10.42
2023-03-17T12:08:42.002Z,10.37
2023-03-17T12:11:14.901Z,10.36
2023-03-17T12:13:49.067Z,10.33
2023-03-17T12:16:25.052Z,10.35
2023-03-17T12:19:00.656Z,10.38
2023-03-17T12:21:36.164Z,10.43
2023-03-17T12:24:13.252Z,10.52
2023-03-17T12:26:49.046Z,10.53
2023-03-17T12:29:27.109Z,10.46
2023-03-17T12:32:03.053Z,10.39
2023-03-17T12:34:41.358Z,10.38
2023-03-17T12:37:10.544Z,10.35
2023-03-17T12:39:44.167Z,10.37
2023-03-17T12:42:25.397Z,10.47
2023-03-17T12:45:21.784Z,10.59
2023-03-17T12:48:01.297Z,10.70
2023-03-17T12:50:47.366Z,10.70
2023-03-17T12:53:32.682Z,10.71
2023-03-17T12:56:08.382Z,10.71
2023-03-17T12:58:39.744Z,10.76
2023-03-17T13:01:19.809Z,10.81
2023-03-17T13:04:02.039Z,10.80
2023-03-17T13:06:31.228Z,10.83
2023-03-17T13:09:33.160Z,10.81
2023-03-17T13:12:03.224Z,10.84
2023-03-17T13:14:42.827Z,10.88
2023-03-17T13:17:32.716Z,10.90
2023-03-17T13:20:14.337Z,10.84
2023-03-17T13:23:02.171Z,10.79
2023-03-17T13:25:34.330Z,10.80
2023-03-17T13:28:16.237Z,10.81
2023-03-17T13:31:08.101Z,10.79
2023-03-17T13:33:43.470Z,10.76
2023-03-17T13:36:27.088Z,10.74
2023-03-17T13:39:19.892Z,10.74
2023-03-17T13:42:17.977Z,10.75
2023-03-17T13:45:07.450Z,10.77
2023-03-17T13:47:39.489Z,10.74
2023-03-17T13:50:14.532Z,10.76
2023-03-17T13:52:48.424Z,10.82
2023-03-17T13:56:03.407Z,10.85
2023-03-17T13:58:49.168Z,10.86
2023-03-17T14:01:18.317Z,10.88
2023-03-17T14:03:50.568Z,10.92
2023-03-17T14:06:22.102Z,10.97
2023-03-17T14:08:54.072Z,10.95
2023-03-17T14:11:31.149Z,10.91
2023-03-17T14:14:31.486Z,10.85
2023-03-17T14:17:11.412Z,10.78
2023-03-17T14:19:40.934Z,10.74
2023-03-17T14:22:22.197Z,10.67
2023-03-17T14:24:55.370Z,10.65
2023-03-17T14:27:26.298Z,10.69
2023-03-17T14:29:55.106Z,10.74
2023-03-17T14:32:25.594Z,10.74
2023-03-17T14:34:59.123Z,10.74
2023-03-17T14:37:28.697Z,10.73
2023-03-17T14:39:58.823Z,10.71
2023-03-17T14:42:29.930Z,10.68
2023-03-17T14:45:03.641Z,10.69
2023-03-17T14:47:38.816Z,10.68
2023-03-17T14:50:17.158Z,10.68
2023-03-17T14:52:45.894Z,10.69
2023-03-17T14:55:15.891Z,10.69
2023-03-17T14:57:50.504Z,10.67
2023-03-17T15:00:35.831Z,10.64
2023-03-17T15:03:16.940Z,10.64
2023-03-17T15:05:46.485Z,10.61
2023-03-17T15:08:42.130Z,10.58
2023-03-17T15:11:19.010Z,10.58
2023-03-17T15:13:49.246Z,10.58
2023-03-17T15:16:22.817Z,10.60
2023-03-17T15:19:02.075Z,10.60
2023-03-17T15:21:34.937Z,10.60
2023-03-17T15:24:22.156Z,10.58
2023-03-17T15:26:50.732Z,10.56
2023-03-17T15:29:19.687Z,10.53
2023-03-17T15:31:48.392Z,10.49
2023-03-17T15:34:17.133Z,10.44
2023-03-17T15:36:46.915Z,10.41
2023-03-17T15:39:15.573Z,10.38
2023-03-17T15:41:44.406Z,10.35
2023-03-17T15:44:13.072Z,10.32
2023-03-17T15:46:41.816Z,10.28
2023-03-17T15:49:12.087Z,10.24
2023-03-17T15:51:40.708Z,10.20
2023-03-17T15:54:15.025Z,10.16
2023-03-17T15:56:44.229Z,10.13
2023-03-17T15:59:12.906Z,10.10
2023-03-17T16:01:41.824Z,10.05
2023-03-17T16:04:10.449Z,10.00
2023-03-17T16:06:39.257Z,9.96
2023-03-17T16:09:16.050Z,9.93
2023-03-17T16:11:44.770Z,9.89
2023-03-17T16:14:13.494Z,9.84
2023-03-17T16:16:45.056Z,9.80
2023-03-17T16:19:19.543Z,9.76
2023-03-17T16:21:48.883Z,9.70
2023-03-17T16:24:22.099Z,9.66
2023-03-17T16:26:51.546Z,9.60
2023-03-17T16:29:21.577Z,9.55
2023-03-17T16:31:50.968Z,9.50
2023-03-17T16:34:22.450Z,9.43
2023-03-17T16:36:51.451Z,9.36
2023-03-17T16:39:22.460Z,9.31
2023-03-17T16:41:52.861Z,9.25
2023-03-17T16:44:22.775Z,9.21
2023-03-17T16:46:51.897Z,9.15
2023-03-17T16:49:22.318Z,9.10
2023-03-17T16:51:51.116Z,9.04
2023-03-17T16:54:19.963Z,8.98
2023-03-17T16:56:48.659Z,8.92
2023-03-17T16:59:20.894Z,8.85
2023-03-17T17:01:48.652Z,8.79
2023-03-17T17:04:17.172Z,8.71
2023-03-17T17:06:46.000Z,8.65
2023-03-17T17:09:14.799Z,8.59
2023-03-17T17:11:43.434Z,8.53
2023-03-17T17:14:12.037Z,8.47
2023-03-17T17:16:40.980Z,8.42
2023-03-17T17:19:16.372Z,8.36
2023-03-17T17:21:45.272Z,8.30
2023-03-17T17:24:15.056Z,8.23
2023-03-17T17:26:43.869Z,8.17
2023-03-17T17:29:12.500Z,8.12
2023-03-17T17:31:41.147Z,8.06
2023-03-17T17:34:09.950Z,8.02
2023-03-17T17:36:38.931Z,7.98
2023-03-17T17:39:09.382Z,7.95
2023-03-17T17:41:38.012Z,7.91
2023-03-17T17:44:07.008Z,7.86
2023-03-17T17:46:35.965Z,7.82
2023-03-17T17:49:05.174Z,7.78
2023-03-17T17:51:34.208Z,7.74
2023-03-17T17:54:02.902Z,7.69
2023-03-17T17:56:36.141Z,7.64
2023-03-17T17:59:05.029Z,7.59
2023-03-17T18:01:34.361Z,7.56
2023-03-17T18:04:03.037Z,7.52
2023-03-17T18:06:31.651Z,7.48
2023-03-17T18:09:00.344Z,7.43
2023-03-17T18:11:29.074Z,7.38
2023-03-17T18:13:57.973Z,7.35
2023-03-17T18:16:26.733Z,7.31
2023-03-17T18:18:57.079Z,7.27
2023-03-17T18:21:25.835Z,7.23
2023-03-17T18:23:54.738Z,7.20
2023-03-17T18:26:23.669Z,7.16
2023-03-17T18:28:52.786Z,7.13
2023-03-17T18:31:26.144Z,7.11
2023-03-17T18:33:58.603Z,7.09
2023-03-17T18:36:27.804Z,7.08
2023-03-17T18:38:56.903Z,7.07
2023-03-17T18:41:27.311Z,7.05
2023-03-17T18:43:56.277Z,7.03
2023-03-17T18:46:25.466Z,7.01
2023-03-17T18:48:54.456Z,6.98
2023-03-17T18:51:23.067Z,6.97
2023-03-17T18:53:51.647Z,6.94
2023-03-17T18:56:20.965Z,6.92
2023-03-17T18:58:49.785Z,6.90
2023-03-17T19:01:18.565Z,6.88
2023-03-17T19:03:47.313Z,6.85
2023-03-17T19:06:17.867Z,6.82
2023-03-17T19:08:47.741Z,6.79
2023-03-17T19:11:19.491Z,6.77
2023-03-17T19:13:48.702Z,6.74
2023-03-17T19:16:18.143Z,6.71
2023-03-17T19:18:46.927Z,6.68
2023-03-17T19:21:15.838Z,6.66
2023-03-17T19:23:44.521Z,6.64
2023-03-17T19:26:13.280Z,6.61
2023-03-17T19:28:41.964Z,6.58
2023-03-17T19:31:11.135Z,6.55
2023-03-17T19:33:39.969Z,6.52
2023-03-17T19:36:11.679Z,6.51
2023-03-17T19:38:40.822Z,6.49
2023-03-17T19:41:09.440Z,6.45
2023-03-17T19:43:41.292Z,6.43
2023-03-17T19:46:10.338Z,6.41
2023-03-17T19:48:39.428Z,6.41
2023-03-17T19:51:08.638Z,6.45
2023-03-17T19:53:37.471Z,6.48
2023-03-17T19:56:07.518Z,6.52
2023-03-17T19:58:36.826Z,6.56
2023-03-17T20:01:06.945Z,6.59
2023-03-17T20:03:41.680Z,6.62
2023-03-17T20:06:10.716Z,6.65
2023-03-17T20:08:39.682Z,6.65
2023-03-17T20:11:08.656Z,6.65
2023-03-17T20:13:37.441Z,6.64
2023-03-17T20:16:08.332Z,6.61
2023-03-17T20:18:36.965Z,6.57
2023-03-17T20:21:10.983Z,6.57
2023-03-17T20:23:39.867Z,6.59
2023-03-17T20:26:08.672Z,6.59
2023-03-17T20:28:38.140Z,6.57
2023-03-17T20:31:07.482Z,6.55
2023-03-17T20:33:36.538Z,6.54
2023-03-17T20:36:06.800Z,6.53
2023-03-17T20:38:38.243Z,6.52
2023-03-17T20:41:09.052Z,6.50
2023-03-17T20:43:37.970Z,6.48
2023-03-17T20:46:08.169Z,6.46
2023-03-17T20:48:37.294Z,6.43
2023-03-17T20:51:06.811Z,6.40
2023-03-17T20:53:36.194Z,6.38
2023-03-17T20:56:06.840Z,6.36
2023-03-17T20:58:36.044Z,6.34
2023-03-17T21:01:05.121Z,6.31
2023-03-17T21:03:34.290Z,6.29
2023-03-17T21:06:04.237Z,6.25
2023-03-17T21:08:36.049Z,6.20
2023-03-17T21:11:05.476Z,6.15
2023-03-17T21:13:35.649Z,6.11
2023-03-17T21:16:06.202Z,6.07
2023-03-17T21:18:35.349Z,6.03
2023-03-17T21:21:05.161Z,6.00
2023-03-17T21:23:35.385Z,5.97
2023-03-17T21:26:05.262Z,5.95
2023-03-17T21:28:34.861Z,5.93
2023-03-17T21:31:04.677Z,5.91
2023-03-17T21:33:34.110Z,5.90
2023-03-17T21:36:02.821Z,5.89
2023-03-17T21:38:31.559Z,5.93
2023-03-17T21:41:20.700Z,5.94
2023-03-17T21:43:49.837Z,5.95
2023-03-17T21:46:18.454Z,5.97
2023-03-17T21:48:47.943Z,5.98
2023-03-17T21:51:16.656Z,5.97
2023-03-17T21:53:46.213Z,5.98
2023-03-17T21:56:15.086Z,5.98
2023-03-17T21:58:43.856Z,5.97
2023-03-17T22:01:13.713Z,5.96
2023-03-17T22:03:42.499Z,5.97
2023-03-17T22:06:11.760Z,5.98
2023-03-17T22:08:40.548Z,5.99
2023-03-17T22:11:10.917Z,6.00
2023-03-17T22:13:40.091Z,6.00
2023-03-17T22:16:10.616Z,6.00
2023-03-17T22:18:39.605Z,6.01
2023-03-17T22:21:09.534Z,6.01
2023-03-17T22:23:40.884Z,6.01
2023-03-17T22:26:13.063Z,6.01
2023-03-17T22:28:43.109Z,6.02
2023-03-17T22:31:13.484Z,6.02
2023-03-17T22:33:43.570Z,6.04
2023-03-17T22:36:12.532Z,6.02
2023-03-17T22:38:41.472Z,6.00
2023-03-17T22:41:13.044Z,6.00
2023-03-17T22:43:41.734Z,6.00
2023-03-17T22:46:11.291Z,5.99
2023-03-17T22:48:40.589Z,5.98
2023-03-17T22:51:11.706Z,5.98
2023-03-17T22:53:40.954Z,5.98
2023-03-17T22:56:11.337Z,5.98
2023-03-17T22:58:40.716Z,5.99
2023-03-17T23:01:11.639Z,5.98
2023-03-17T23:03:41.289Z,5.97
2023-03-17T23:06:11.119Z,5.98
2023-03-17T23:08:42.106Z,5.98
2023-03-17T23:11:12.923Z,5.96
2023-03-17T23:13:41.762Z,5.94
2023-03-17T23:16:10.825Z,5.91
2023-03-17T23:18:40.323Z,5.89
2023-03-17T23:21:09.681Z,5.89
2023-03-17T23:23:38.648Z,5.86
2023-03-17T23:26:08.677Z,5.85
2023-03-17T23:28:37.400Z,5.81
2023-03-17T23:31:06.349Z,5.78
2023-03-17T23:33:35.016Z,5.76
2023-03-17T23:36:04.309Z,5.74
2023-03-17T23:38:33.515Z,5.72
2023-03-17T23:41:02.149Z,5.69
2023-03-17T23:43:31.125Z,5.66
2023-03-17T23:46:00.565Z,5.64
2023-03-17T23:48:29.247Z,5.64
2023-03-17T23:51:06.058Z,5.63
2023-03-17T23:53:34.718Z,5.63
2023-03-17T23:56:04.259Z,5.66
2023-03-17T23:58:33.084Z,5.69
